createdAt,value
2023-02-19T00:01:38.537Z,72.38
2023-02-19T00:06:43.289Z,72.47
2023-02-19T00:11:48.672Z,72.52
2023-02-19T00:16:52.073Z,72.71
2023-02-19T00:21:56.158Z,72.26
2023-02-19T00:27:00.939Z,72.13
2023-02-19T00:32:04.501Z,72.00
2023-02-19T00:37:07.931Z,72.03
2023-02-19T00:42:12.715Z,72.19
2023-02-19T00:47:16.185Z,71.73
2023-02-19T00:52:19.810Z,72.33
2023-02-19T00:57:24.925Z,72.95
2023-02-19T01:02:28.321Z,72.18
2023-02-19T01:07:32.062Z,72.28
2023-02-19T01:12:36.907Z,72.13
2023-02-19T01:17:40.322Z,71.49
2023-02-19T01:22:43.904Z,71.44
2023-02-19T01:27:48.716Z,71.64
2023-02-19T01:32:53.758Z,71.13
2023-02-19T01:37:57.154Z,70.77
2023-02-19T01:43:03.744Z,72.14
2023-02-19T01:48:12.357Z,71.67
2023-02-19T01:53:19.384Z,72.37
2023-02-19T01:58:25.594Z,72.42
2023-02-19T02:03:29.944Z,72.79
2023-02-19T02:08:52.352Z,72.67
2023-02-19T02:14:00.098Z,72.10
2023-02-19T02:19:15.986Z,71.19
2023-02-19T02:24:38.842Z,71.24
2023-02-19T02:30:24.132Z,70.37
2023-02-19T02:35:31.846Z,70.63
2023-02-19T02:40:36.403Z,70.64
2023-02-19T02:45:42.951Z,69.98
2023-02-19T02:51:03.880Z,70.09
2023-02-19T02:56:14.708Z,70.21
2023-02-19T03:01:41.657Z,69.84
2023-02-19T03:06:48.331Z,69.16
2023-02-19T03:12:11.389Z,69.31
2023-02-19T03:17:40.818Z,68.78
2023-02-19T03:22:47.910Z,68.11
2023-02-19T03:27:53.577Z,67.92
2023-02-19T03:33:01.419Z,68.37
2023-02-19T03:38:12.522Z,68.43
2023-02-19T03:43:22.995Z,68.77
2023-02-19T03:48:33.616Z,68.02
2023-02-19T03:53:48.875Z,67.58
2023-02-19T03:58:58.092Z,67.03
2023-02-19T04:04:09.150Z,66.15
2023-02-19T04:09:15.867Z,65.76
2023-02-19T04:14:28.199Z,65.75
2023-02-19T04:19:38.162Z,65.24
2023-02-19T04:24:47.483Z,65.76
2023-02-19T04:29:51.191Z,65.78
2023-02-19T04:34:55.996Z,66.05
2023-02-19T04:39:59.363Z,66.04
2023-02-19T04:45:03.240Z,66.13
2023-02-19T04:50:09.077Z,65.83
2023-02-19T04:55:12.447Z,65.82
2023-02-19T05:00:16.624Z,66.06
2023-02-19T05:05:21.357Z,66.05
2023-02-19T05:10:24.833Z,66.49
2023-02-19T05:15:28.204Z,66.33
2023-02-19T05:20:33.034Z,66.45
2023-02-19T05:25:36.637Z,66.15
2023-02-19T05:30:40.370Z,66.00
2023-02-19T05:35:47.067Z,66.03
2023-02-19T05:40:50.497Z,65.57
2023-02-19T05:45:53.936Z,65.30
2023-02-19T05:51:03.576Z,65.28
2023-02-19T05:56:25.169Z,64.90
2023-02-19T06:01:30.447Z,64.70
2023-02-19T06:06:35.489Z,64.73
2023-02-19T06:11:39.522Z,64.73
2023-02-19T06:16:43.696Z,64.37
2023-02-19T06:21:51.640Z,64.46
2023-02-19T06:26:55.034Z,63.76
2023-02-19T06:31:58.569Z,64.16
2023-02-19T06:37:03.698Z,64.12
2023-02-19T06:42:07.163Z,63.83
2023-02-19T06:47:10.634Z,63.50
2023-02-19T06:52:15.425Z,63.36
2023-02-19T06:57:19.070Z,62.31
2023-02-19T07:02:22.413Z,62.59
2023-02-19T07:07:27.434Z,62.62
2023-02-19T07:12:30.873Z,63.15
2023-02-19T07:17:35.411Z,62.07
2023-02-19T07:22:40.438Z,61.36
2023-02-19T07:27:43.801Z,61.84
2023-02-19T07:32:47.149Z,61.25
2023-02-19T07:37:51.920Z,61.52
2023-02-19T07:42:55.278Z,60.81
2023-02-19T07:47:58.679Z,60.59
2023-02-19T07:53:03.435Z,60.63
2023-02-19T07:58:06.863Z,60.68
2023-02-19T08:03:10.656Z,60.04
2023-02-19T08:08:16.581Z,60.19
2023-02-19T08:13:20.509Z,58.50
2023-02-19T08:18:25.738Z,59.03
2023-02-19T08:23:31.021Z,59.14
2023-02-19T08:28:34.701Z,57.30
2023-02-19T08:33:38.453Z,57.66
2023-02-19T08:38:43.550Z,57.73
2023-02-19T08:43:46.960Z,57.43
2023-02-19T08:48:50.677Z,55.62
2023-02-19T08:53:55.689Z,55.42
2023-02-19T08:58:59.032Z,55.21
2023-02-19T09:04:02.693Z,54.62
2023-02-19T09:09:07.548Z,54.74
2023-02-19T09:14:11.104Z,52.60
2023-02-19T09:19:14.524Z,53.14
2023-02-19T09:24:19.255Z,52.99
2023-02-19T09:29:23.862Z,52.19
2023-02-19T09:34:28.045Z,51.69
2023-02-19T09:39:33.200Z,51.43
2023-02-19T09:44:39.583Z,51.58
2023-02-19T09:49:50.092Z,51.76
2023-02-19T09:54:59.349Z,50.61
2023-02-19T10:00:10.343Z,49.93
2023-02-19T10:05:15.726Z,49.51
2023-02-19T10:10:33.247Z,50.00
2023-02-19T10:15:42.587Z,49.38
2023-02-19T10:20:47.136Z,49.11
2023-02-19T10:25:57.143Z,48.50
2023-02-19T10:31:02.083Z,50.41
2023-02-19T10:36:08.919Z,49.53
2023-02-19T10:41:18.108Z,48.90
2023-02-19T10:46:24.857Z,48.83
2023-02-19T10:51:34.188Z,47.85
2023-02-19T10:56:40.820Z,47.93
2023-02-19T11:01:55.169Z,47.77
2023-02-19T11:06:58.664Z,47.47
2023-02-19T11:12:05.082Z,46.88
2023-02-19T11:17:08.877Z,47.63
2023-02-19T11:22:31.172Z,45.08
2023-02-19T11:27:35.959Z,43.94
2023-02-19T11:32:39.312Z,45.00
2023-02-19T11:37:56.366Z,44.05
2023-02-19T11:43:14.103Z,44.46
2023-02-19T11:48:34.001Z,45.15
2023-02-19T11:53:48.086Z,45.24
2023-02-19T11:59:00.938Z,45.70
2023-02-19T12:04:37.768Z,46.01
2023-02-19T12:09:59.957Z,46.71
2023-02-19T12:15:32.209Z,46.46
2023-02-19T12:20:44.033Z,47.62
2023-02-19T12:26:01.316Z,49.26
2023-02-19T12:31:35.788Z,51.81
2023-02-19T12:36:50.969Z,52.30
2023-02-19T12:42:03.521Z,53.45
2023-02-19T12:47:12.007Z,52.33
2023-02-19T12:52:20.220Z,52.79
2023-02-19T12:57:27.289Z,52.67
2023-02-19T13:02:39.579Z,53.26
2023-02-19T13:07:50.306Z,52.46
2023-02-19T13:12:56.774Z,51.88
2023-02-19T13:18:04.270Z,50.89
2023-02-19T13:23:30.468Z,50.63
2023-02-19T13:28:51.644Z,50.56
2023-02-19T13:34:06.987Z,50.53
2023-02-19T13:44:28.622Z,50.41
2023-02-19T13:49:43.424Z,51.01
2023-02-19T13:54:46.730Z,50.51
2023-02-19T13:59:51.051Z,51.02
2023-02-19T14:05:00.243Z,50.26
2023-02-19T14:10:04.954Z,50.59
2023-02-19T14:15:41.661Z,50.41
2023-02-19T14:20:47.747Z,51.07
2023-02-19T14:25:56.062Z,51.20
2023-02-19T14:31:02.375Z,52.21
2023-02-19T14:36:16.471Z,51.92
2023-02-19T14:47:46.256Z,52.77
2023-02-19T14:58:55.739Z,52.98
2023-02-19T15:04:52.815Z,53.03
2023-02-19T15:10:09.388Z,53.62
2023-02-19T15:15:20.574Z,54.41
2023-02-19T15:20:30.485Z,54.51
2023-02-19T15:25:39.611Z,55.14
2023-02-19T15:30:44.783Z,55.34
2023-02-19T15:35:53.280Z,55.72
2023-02-19T15:41:02.797Z,56.28
2023-02-19T15:46:22.570Z,56.85
2023-02-19T15:51:34.421Z,57.11
2023-02-19T15:56:47.384Z,57.63
2023-02-19T16:01:52.174Z,58.19
2023-02-19T16:07:02.195Z,58.57
2023-02-19T16:12:24.201Z,58.71
2023-02-19T16:17:31.560Z,59.18
2023-02-19T16:22:43.461Z,59.33
2023-02-19T16:27:49.584Z,59.58
2023-02-19T16:33:30.365Z,59.73
2023-02-19T16:38:34.337Z,60.32
2023-02-19T16:43:45.380Z,60.26
2023-02-19T16:48:50.882Z,60.69
2023-02-19T16:53:56.960Z,61.23
2023-02-19T16:59:07.503Z,61.07
2023-02-19T17:04:15.924Z,61.35
2023-02-19T17:09:35.677Z,61.72
2023-02-19T17:14:44.265Z,61.64
2023-02-19T17:19:49.007Z,61.33
2023-02-19T17:24:55.439Z,61.92
2023-02-19T17:30:03.258Z,61.80
2023-02-19T17:36:06.709Z,61.72
2023-02-19T17:41:11.889Z,62.40
2023-02-19T17:46:19.685Z,61.93
2023-02-19T17:51:25.695Z,62.40
2023-02-19T17:56:33.023Z,62.38
2023-02-19T18:01:38.975Z,62.82
2023-02-19T18:06:44.387Z,63.17
2023-02-19T18:11:48.821Z,63.11
2023-02-19T18:16:54.355Z,63.58
2023-02-19T18:21:59.219Z,63.51
2023-02-19T18:27:03.542Z,63.77
2023-02-19T18:32:10.742Z,63.75
2023-02-19T18:52:07.295Z,64.43
2023-02-19T18:57:17.207Z,64.73
2023-02-19T19:02:21.712Z,65.38
2023-02-19T19:07:27.931Z,65.59
2023-02-19T19:12:54.982Z,65.72
2023-02-19T19:18:00.720Z,66.14
2023-02-19T19:23:07.987Z,65.82
2023-02-19T19:28:12.868Z,65.92
2023-02-19T19:33:17.827Z,66.15
2023-02-19T19:38:34.894Z,66.23
2023-02-19T19:43:39.852Z,66.05
2023-02-19T19:48:43.814Z,66.27
2023-02-19T19:53:51.367Z,66.47
2023-02-19T19:59:02.763Z,66.26
2023-02-19T20:04:08.584Z,66.23
2023-02-19T20:09:25.700Z,66.59
2023-02-19T20:14:29.832Z,66.51
2023-02-19T20:19:35.920Z,66.71
2023-02-19T20:24:42.167Z,66.76
2023-02-19T20:29:53.387Z,67.07
2023-02-19T20:35:01.683Z,67.22
2023-02-19T20:40:10.633Z,67.34
2023-02-19T20:45:17.389Z,67.96
2023-02-19T20:50:23.714Z,67.51
2023-02-19T20:55:30.490Z,67.60
2023-02-19T21:00:35.944Z,67.60
2023-02-19T21:05:41.603Z,67.52
2023-02-19T21:10:49.516Z,67.06
2023-02-19T21:15:54.046Z,67.11
2023-02-19T21:20:58.403Z,67.38
2023-02-19T21:26:06.139Z,66.96
2023-02-19T21:31:11.148Z,66.58
2023-02-19T21:36:16.089Z,66.36
2023-02-19T21:41:21.762Z,65.74
2023-02-19T21:46:27.980Z,65.35
2023-02-19T21:51:35.145Z,65.02
2023-02-19T21:56:47.015Z,64.82
2023-02-19T22:01:53.721Z,64.38
2023-02-19T22:06:58.803Z,64.61
2023-02-19T22:12:04.460Z,64.96
2023-02-19T22:17:11.472Z,64.69
2023-02-19T22:22:16.831Z,64.53
2023-02-19T22:27:24.702Z,64.83
2023-02-19T22:32:28.956Z,64.69
2023-02-19T22:37:42.953Z,65.08
2023-02-19T22:42:51.474Z,65.03
2023-02-19T22:48:01.150Z,64.83
2023-02-19T22:53:11.957Z,64.80
2023-02-19T22:58:23.794Z,64.77
2023-02-19T23:03:32.325Z,65.15
2023-02-19T23:08:41.049Z,65.02
2023-02-19T23:13:51.732Z,64.86
2023-02-19T23:18:56.771Z,64.85
2023-02-19T23:24:02.543Z,65.07
2023-02-19T23:29:14.666Z,64.62
2023-02-19T23:34:22.171Z,64.94
2023-02-19T23:39:27.941Z,65.12
2023-02-19T23:44:35.504Z,64.96
2023-02-19T23:49:41.181Z,65.44
2023-02-19T23:54:52.457Z,65.51
